createdAt,value
2023-02-19T00:00:23.975Z,-14.06
2023-02-19T00:01:31.312Z,-14.05
2023-02-19T00:02:33.430Z,-14.05
2023-02-19T00:03:37.230Z,-14.04
2023-02-19T00:04:39.477Z,-13.99
2023-02-19T00:05:41.442Z,-13.99
2023-02-19T00:06:44.822Z,-13.99
2023-02-19T00:07:46.710Z,-13.97
2023-02-19T00:08:48.964Z,-13.98
2023-02-19T00:09:51.145Z,-13.94
2023-02-19T00:10:53.649Z,-13.94
2023-02-19T00:11:55.599Z,-13.94
2023-02-19T00:12:57.919Z,-13.94
2023-02-19T00:14:01.464Z,-13.92
2023-02-19T00:15:03.679Z,-13.96
2023-02-19T00:16:14.940Z,-13.92
2023-02-19T00:17:16.942Z,-13.92
2023-02-19T00:18:19.254Z,-13.97
2023-02-19T00:19:21.710Z,-14.02
2023-02-19T00:20:23.741Z,-14.01
2023-02-19T00:21:26.718Z,-13.99
2023-02-19T00:22:28.712Z,-14.01
2023-02-19T00:23:31.516Z,-13.99
2023-02-19T00:24:33.614Z,-14.01
2023-02-19T00:25:38.300Z,-13.99
2023-02-19T00:26:41.766Z,-13.93
2023-02-19T00:27:43.697Z,-13.94
2023-02-19T00:28:47.481Z,-13.95
2023-02-19T00:29:50.158Z,-13.93
2023-02-19T00:30:52.137Z,-13.94
2023-02-19T00:31:54.490Z,-13.97
2023-02-19T00:32:56.824Z,-13.93
2023-02-19T00:34:01.369Z,-13.95
2023-02-19T00:35:03.457Z,-13.96
2023-02-19T00:36:06.240Z,-13.98
2023-02-19T00:37:08.288Z,-13.97
2023-02-19T00:38:10.324Z,-13.94
2023-02-19T00:39:15.998Z,-13.90
2023-02-19T00:40:18.187Z,-13.91
2023-02-19T00:41:22.209Z,-13.97
2023-02-19T00:42:25.777Z,-14.00
2023-02-19T00:43:28.058Z,-14.01
2023-02-19T00:44:30.093Z,-13.98
2023-02-19T00:45:32.053Z,-14.07
2023-02-19T00:46:46.318Z,-14.08
2023-02-19T00:47:48.410Z,-14.08
2023-02-19T00:48:50.507Z,-14.05
2023-02-19T00:49:52.706Z,-13.97
2023-02-19T00:52:23.161Z,-13.94
2023-02-19T00:53:25.190Z,-13.94
2023-02-19T00:54:27.875Z,-13.93
2023-02-19T00:55:29.669Z,-13.96
2023-02-19T00:56:31.830Z,-13.96
2023-02-19T00:57:33.796Z,-14.00
2023-02-19T00:58:35.960Z,-13.97
2023-02-19T00:59:37.803Z,-13.98
2023-02-19T01:00:39.735Z,-13.96
2023-02-19T01:01:41.748Z,-13.93
2023-02-19T01:02:43.609Z,-13.93
2023-02-19T01:03:46.042Z,-13.92
2023-02-19T01:04:48.250Z,-13.93
2023-02-19T01:05:50.866Z,-13.92
2023-02-19T01:06:52.807Z,-13.90
2023-02-19T01:07:54.649Z,-13.90
2023-02-19T01:08:56.752Z,-13.89
2023-02-19T01:09:58.665Z,-13.87
2023-02-19T01:11:02.476Z,-13.84
2023-02-19T01:12:05.869Z,-13.78
2023-02-19T01:13:07.701Z,-13.77
2023-02-19T01:14:10.771Z,-13.74
2023-02-19T01:15:12.847Z,-13.71
2023-02-19T01:16:17.808Z,-13.72
2023-02-19T01:17:19.635Z,-13.74
2023-02-19T01:18:21.422Z,-13.72
2023-02-19T01:19:23.260Z,-13.71
2023-02-19T01:20:25.880Z,-13.72
2023-02-19T01:21:29.553Z,-13.74
2023-02-19T01:22:31.668Z,-13.73
2023-02-19T01:23:33.688Z,-13.71
2023-02-19T01:24:35.736Z,-13.73
2023-02-19T01:25:42.193Z,-13.72
2023-02-19T01:26:44.253Z,-13.71
2023-02-19T01:27:46.382Z,-13.68
2023-02-19T01:28:48.677Z,-13.65
2023-02-19T01:29:50.587Z,-13.65
2023-02-19T01:30:52.490Z,-13.62
2023-02-19T01:31:54.397Z,-13.66
2023-02-19T01:32:56.282Z,-13.70
2023-02-19T01:34:01.005Z,-13.70
2023-02-19T01:35:03.334Z,-13.76
2023-02-19T01:36:06.663Z,-13.75
2023-02-19T01:37:12.104Z,-13.75
2023-02-19T01:38:14.190Z,-13.74
2023-02-19T01:39:16.038Z,-13.76
2023-02-19T01:40:17.959Z,-13.77
2023-02-19T01:41:23.707Z,-13.79
2023-02-19T01:42:25.492Z,-13.80
2023-02-19T01:43:27.828Z,-13.80
2023-02-19T01:44:29.593Z,-13.81
2023-02-19T01:45:33.258Z,-13.78
2023-02-19T01:46:37.362Z,-13.73
2023-02-19T01:47:39.267Z,-13.74
2023-02-19T01:48:41.687Z,-13.76
2023-02-19T01:49:51.431Z,-13.77
2023-02-19T01:50:59.311Z,-13.85
2023-02-19T01:52:04.296Z,-13.88
2023-02-19T01:53:09.218Z,-13.80
2023-02-19T01:54:15.117Z,-13.93
2023-02-19T01:55:17.043Z,-14.04
2023-02-19T01:56:21.217Z,-14.11
2023-02-19T01:57:27.157Z,-14.17
2023-02-19T01:58:33.188Z,-14.14
2023-02-19T01:59:35.422Z,-14.15
2023-02-19T02:00:37.743Z,-14.13
2023-02-19T02:01:41.358Z,-14.10
2023-02-19T02:02:48.900Z,-14.13
2023-02-19T02:03:52.374Z,-14.07
2023-02-19T02:05:00.340Z,-14.01
2023-02-19T02:06:04.144Z,-14.07
2023-02-19T02:07:27.582Z,-14.04
2023-02-19T02:08:50.408Z,-14.05
2023-02-19T02:10:11.532Z,-13.95
2023-02-19T02:11:13.616Z,-13.94
2023-02-19T02:12:15.771Z,-13.97
2023-02-19T02:13:18.082Z,-14.03
2023-02-19T02:14:44.013Z,-14.04
2023-02-19T02:15:55.365Z,-14.05
2023-02-19T02:17:29.586Z,-14.16
2023-02-19T02:18:52.856Z,-14.20
2023-02-19T02:20:16.248Z,-14.19
2023-02-19T02:21:18.121Z,-14.17
2023-02-19T02:22:26.066Z,-14.15
2023-02-19T02:23:36.971Z,-14.14
2023-02-19T02:24:57.158Z,-14.13
2023-02-19T02:26:25.372Z,-14.09
2023-02-19T02:27:59.431Z,-14.15
2023-02-19T02:29:28.982Z,-14.00
2023-02-19T02:30:40.041Z,-14.06
2023-02-19T02:31:47.824Z,-14.15
2023-02-19T02:32:57.979Z,-14.17
2023-02-19T02:34:20.885Z,-14.16
2023-02-19T02:35:27.141Z,-14.22
2023-02-19T02:36:33.904Z,-14.26
2023-02-19T02:37:38.995Z,-14.24
2023-02-19T02:38:44.223Z,-14.30
2023-02-19T02:39:47.322Z,-14.39
2023-02-19T02:40:49.613Z,-14.40
2023-02-19T02:42:15.502Z,-14.41
2023-02-19T02:43:17.476Z,-14.44
2023-02-19T02:44:19.288Z,-14.51
2023-02-19T02:45:37.598Z,-14.46
2023-02-19T02:46:45.415Z,-14.42
2023-02-19T02:47:47.162Z,-14.46
2023-02-19T02:49:01.398Z,-14.37
2023-02-19T02:50:06.298Z,-14.41
2023-02-19T02:51:39.011Z,-14.48
2023-02-19T02:53:02.541Z,-14.42
2023-02-19T02:54:58.302Z,-14.41
2023-02-19T02:56:01.761Z,-14.41
2023-02-19T02:57:04.523Z,-14.45
2023-02-19T02:58:07.621Z,-14.49
2023-02-19T02:59:12.629Z,-14.52
2023-02-19T03:00:15.360Z,-14.52
2023-02-19T03:01:50.234Z,-14.54
2023-02-19T03:02:53.864Z,-14.53
2023-02-19T03:04:03.168Z,-14.56
2023-02-19T03:05:33.928Z,-14.58
2023-02-19T03:06:38.038Z,-14.54
2023-02-19T03:07:48.064Z,-14.54
2023-02-19T03:09:15.564Z,-14.54
2023-02-19T03:10:22.689Z,-14.50
2023-02-19T03:11:43.461Z,-14.50
2023-02-19T03:13:05.159Z,-14.46
2023-02-19T03:14:35.935Z,-14.44
2023-02-19T03:16:02.635Z,-14.47
2023-02-19T03:17:49.240Z,-14.47
2023-02-19T03:19:13.338Z,-14.43
2023-02-19T03:20:20.769Z,-14.38
2023-02-19T03:21:24.287Z,-14.40
2023-02-19T03:22:31.318Z,-14.42
2023-02-19T03:23:54.285Z,-14.45
2023-02-19T03:25:25.760Z,-14.41
2023-02-19T03:26:28.584Z,-14.37
2023-02-19T03:27:32.620Z,-14.37
2023-02-19T03:28:57.525Z,-14.39
2023-02-19T03:30:05.174Z,-14.41
2023-02-19T03:31:12.719Z,-14.43
2023-02-19T03:32:24.146Z,-14.41
2023-02-19T03:33:29.876Z,-14.38
2023-02-19T03:34:54.356Z,-14.35
2023-02-19T03:36:01.078Z,-14.37
2023-02-19T03:37:25.437Z,-14.35
2023-02-19T03:38:45.669Z,-14.32
2023-02-19T03:39:47.882Z,-14.30
2023-02-19T03:40:59.180Z,-14.29
2023-02-19T03:42:11.139Z,-14.30
2023-02-19T03:43:24.362Z,-14.26
2023-02-19T03:45:01.791Z,-14.28
2023-02-19T03:46:13.228Z,-14.24
2023-02-19T03:47:26.250Z,-14.21
2023-02-19T03:48:35.428Z,-14.22
2023-02-19T03:49:43.126Z,-14.23
2023-02-19T03:50:50.345Z,-14.24
2023-02-19T03:52:16.759Z,-14.23
2023-02-19T03:53:35.409Z,-14.18
2023-02-19T03:54:50.444Z,-14.15
2023-02-19T03:56:14.162Z,-14.16
2023-02-19T03:57:33.874Z,-14.21
2023-02-19T03:58:45.299Z,-14.15
2023-02-19T04:00:03.692Z,-14.11
2023-02-19T04:01:17.371Z,-14.09
2023-02-19T04:02:48.585Z,-14.11
2023-02-19T04:04:01.776Z,-14.05
2023-02-19T04:05:30.902Z,-14.05
2023-02-19T04:06:34.476Z,-14.02
2023-02-19T04:07:42.260Z,-13.98
2023-02-19T04:08:49.715Z,-13.97
2023-02-19T04:09:52.167Z,-13.95
2023-02-19T04:10:55.464Z,-13.99
2023-02-19T04:11:58.679Z,-13.98
2023-02-19T04:13:05.989Z,-13.93
2023-02-19T04:14:16.394Z,-13.93
2023-02-19T04:15:23.608Z,-13.93
2023-02-19T04:16:28.957Z,-13.92
2023-02-19T04:17:38.147Z,-13.92
2023-02-19T04:18:44.262Z,-13.91
2023-02-19T04:19:49.186Z,-13.93
2023-02-19T04:20:51.056Z,-13.91
2023-02-19T04:21:56.620Z,-13.85
2023-02-19T04:22:58.850Z,-13.78
2023-02-19T04:24:06.481Z,-13.81
2023-02-19T04:25:09.245Z,-13.85
2023-02-19T04:26:13.520Z,-13.94
2023-02-19T04:27:15.494Z,-13.95
2023-02-19T04:28:18.625Z,-13.87
2023-02-19T04:29:20.635Z,-13.90
2023-02-19T04:30:22.776Z,-13.88
2023-02-19T04:31:26.527Z,-13.89
2023-02-19T04:32:28.464Z,-13.94
2023-02-19T04:33:30.268Z,-13.99
2023-02-19T04:34:32.216Z,-14.01
2023-02-19T04:35:34.194Z,-14.06
2023-02-19T04:36:36.236Z,-14.06
2023-02-19T04:37:38.265Z,-14.02
2023-02-19T04:38:40.163Z,-13.98
2023-02-19T04:39:42.192Z,-13.97
2023-02-19T04:40:44.162Z,-13.96
2023-02-19T04:41:46.124Z,-13.92
2023-02-19T04:42:48.341Z,-13.85
2023-02-19T04:43:50.282Z,-13.85
2023-02-19T04:44:52.410Z,-13.88
2023-02-19T04:45:54.437Z,-13.83
2023-02-19T04:46:56.367Z,-13.81
2023-02-19T04:47:59.207Z,-13.81
2023-02-19T04:49:01.122Z,-13.75
2023-02-19T04:50:03.234Z,-13.75
2023-02-19T04:51:07.188Z,-13.75
2023-02-19T04:52:09.196Z,-13.76
2023-02-19T04:53:11.232Z,-13.70
2023-02-19T04:54:13.113Z,-13.75
2023-02-19T04:55:15.020Z,-13.69
2023-02-19T04:56:17.596Z,-13.66
2023-02-19T04:57:19.667Z,-13.58
2023-02-19T04:58:22.097Z,-13.62
2023-02-19T04:59:24.126Z,-13.61
2023-02-19T05:00:26.081Z,-13.59
2023-02-19T05:01:27.928Z,-13.54
2023-02-19T05:02:29.817Z,-13.48
2023-02-19T05:03:32.319Z,-13.51
2023-02-19T05:04:34.312Z,-13.42
2023-02-19T05:05:36.167Z,-13.39
2023-02-19T05:06:38.006Z,-13.36
2023-02-19T05:07:39.804Z,-13.30
2023-02-19T05:08:42.113Z,-13.24
2023-02-19T05:09:43.921Z,-13.16
2023-02-19T05:10:45.975Z,-13.17
2023-02-19T05:11:47.762Z,-13.16
2023-02-19T05:12:49.676Z,-13.19
2023-02-19T05:13:51.532Z,-13.16
2023-02-19T05:14:53.578Z,-13.08
2023-02-19T05:16:01.314Z,-13.02
2023-02-19T05:17:03.146Z,-13.05
2023-02-19T05:18:05.166Z,-13.04
2023-02-19T05:19:06.979Z,-13.16
2023-02-19T05:20:09.448Z,-13.20
2023-02-19T05:21:12.669Z,-13.18
2023-02-19T05:22:14.728Z,-13.23
2023-02-19T05:23:16.612Z,-13.18
2023-02-19T05:24:18.937Z,-13.15
2023-02-19T05:25:21.004Z,-13.29
2023-02-19T05:26:23.882Z,-13.35
2023-02-19T05:27:25.797Z,-13.30
2023-02-19T05:28:30.463Z,-13.26
2023-02-19T05:29:32.745Z,-13.33
2023-02-19T05:30:35.714Z,-13.36
2023-02-19T05:31:37.745Z,-13.38
2023-02-19T05:32:39.913Z,-13.33
2023-02-19T05:33:43.382Z,-13.32
2023-02-19T05:34:45.389Z,-13.36
2023-02-19T05:35:50.467Z,-13.36
2023-02-19T05:36:52.284Z,-13.39
2023-02-19T05:37:54.334Z,-13.39
2023-02-19T05:38:57.509Z,-13.49
2023-02-19T05:39:59.464Z,-13.45
2023-02-19T05:41:19.199Z,-13.39
2023-02-19T05:42:21.149Z,-13.31
2023-02-19T05:43:22.979Z,-13.21
2023-02-19T05:44:25.003Z,-13.15
2023-02-19T05:45:27.229Z,-13.06
2023-02-19T05:46:30.277Z,-12.98
2023-02-19T05:47:32.265Z,-12.89
2023-02-19T05:48:35.061Z,-12.79
2023-02-19T05:49:36.882Z,-12.69
2023-02-19T05:50:39.916Z,-12.67
2023-02-19T05:51:41.881Z,-12.67
2023-02-19T05:52:44.421Z,-12.62
2023-02-19T05:53:46.906Z,-12.62
2023-02-19T05:54:48.739Z,-12.56
2023-02-19T05:55:50.583Z,-12.52
2023-02-19T05:56:52.591Z,-12.47
2023-02-19T05:57:54.510Z,-12.46
2023-02-19T05:58:56.845Z,-12.41
2023-02-19T05:59:58.710Z,-12.35
2023-02-19T06:01:00.623Z,-12.38
2023-02-19T06:02:02.570Z,-12.33
2023-02-19T06:03:04.668Z,-12.29
2023-02-19T06:04:06.725Z,-12.24
2023-02-19T06:05:09.231Z,-12.26
2023-02-19T06:06:16.969Z,-12.32
2023-02-19T06:07:19.038Z,-12.43
2023-02-19T06:08:20.952Z,-12.60
2023-02-19T06:09:22.898Z,-12.71
2023-02-19T06:10:24.794Z,-12.88
2023-02-19T06:11:26.712Z,-12.95
2023-02-19T06:12:28.917Z,-12.98
2023-02-19T06:13:30.708Z,-12.91
2023-02-19T06:14:32.598Z,-13.03
2023-02-19T06:15:34.452Z,-13.09
2023-02-19T06:16:36.353Z,-13.12
2023-02-19T06:17:38.250Z,-13.21
2023-02-19T06:18:43.522Z,-13.22
2023-02-19T06:19:45.514Z,-13.28
2023-02-19T06:20:47.336Z,-13.23
2023-02-19T06:21:51.123Z,-13.12
2023-02-19T06:22:53.128Z,-13.04
2023-02-19T06:23:55.423Z,-13.06
2023-02-19T06:24:57.333Z,-12.98
2023-02-19T06:26:26.047Z,-13.09
2023-02-19T06:27:28.420Z,-13.22
2023-02-19T06:28:30.400Z,-13.30
2023-02-19T06:29:32.898Z,-13.39
2023-02-19T06:30:34.727Z,-13.34
2023-02-19T06:31:36.661Z,-13.32
2023-02-19T06:32:38.756Z,-13.26
2023-02-19T06:33:41.605Z,-13.26
2023-02-19T06:34:43.491Z,-13.24
2023-02-19T06:35:45.439Z,-13.14
2023-02-19T06:36:49.496Z,-13.26
2023-02-19T06:37:51.352Z,-13.28
2023-02-19T06:38:53.485Z,-13.21
2023-02-19T06:39:55.436Z,-13.13
2023-02-19T06:41:05.430Z,-13.32
2023-02-19T06:42:07.294Z,-13.23
2023-02-19T06:43:09.191Z,-13.28
2023-02-19T06:44:11.069Z,-13.26
2023-02-19T06:45:13.022Z,-13.24
2023-02-19T06:46:15.307Z,-13.16
2023-02-19T06:47:17.421Z,-13.19
2023-02-19T06:48:19.503Z,-13.07
2023-02-19T06:49:22.035Z,-12.81
2023-02-19T06:50:24.070Z,-12.78
2023-02-19T06:51:28.843Z,-12.89
2023-02-19T06:52:30.869Z,-12.98
2023-02-19T06:53:32.810Z,-13.12
2023-02-19T06:54:34.725Z,-13.14
2023-02-19T06:55:36.642Z,-13.13
2023-02-19T06:56:39.868Z,-13.01
2023-02-19T06:57:41.790Z,-13.12
2023-02-19T06:58:43.552Z,-13.15
2023-02-19T06:59:46.393Z,-12.97
2023-02-19T07:00:48.465Z,-12.96
2023-02-19T07:01:50.602Z,-13.15
2023-02-19T07:02:56.686Z,-13.13
2023-02-19T07:03:58.911Z,-13.08
2023-02-19T07:05:00.881Z,-13.08
2023-02-19T07:06:03.012Z,-13.15
2023-02-19T07:07:05.442Z,-13.10
2023-02-19T07:08:07.445Z,-13.09
2023-02-19T07:09:09.969Z,-13.12
2023-02-19T07:10:11.806Z,-13.07
2023-02-19T07:11:14.067Z,-12.98
2023-02-19T07:12:16.085Z,-12.97
2023-02-19T07:13:17.927Z,-12.92
2023-02-19T07:14:21.092Z,-12.76
2023-02-19T07:15:23.141Z,-12.83
2023-02-19T07:16:25.897Z,-12.76
2023-02-19T07:17:27.762Z,-12.80
2023-02-19T07:18:30.757Z,-12.80
2023-02-19T07:19:32.979Z,-12.85
2023-02-19T07:20:34.834Z,-12.83
2023-02-19T07:21:38.008Z,-12.74
2023-02-19T07:22:40.163Z,-12.66
2023-02-19T07:23:43.231Z,-12.63
2023-02-19T07:24:47.582Z,-12.60
2023-02-19T07:25:49.761Z,-12.65
2023-02-19T07:26:51.834Z,-12.65
2023-02-19T07:27:53.777Z,-12.63
2023-02-19T07:28:55.893Z,-12.58
2023-02-19T07:29:57.797Z,-12.52
2023-02-19T07:31:04.585Z,-12.50
2023-02-19T07:32:06.803Z,-12.36
2023-02-19T07:33:10.670Z,-12.30
2023-02-19T07:34:12.680Z,-12.33
2023-02-19T07:35:14.685Z,-12.33
2023-02-19T07:36:18.372Z,-12.36
2023-02-19T07:37:20.758Z,-12.42
2023-02-19T07:38:24.675Z,-12.40
2023-02-19T07:39:26.614Z,-12.34
2023-02-19T07:40:28.486Z,-12.20
2023-02-19T07:41:30.536Z,-12.17
2023-02-19T07:42:32.692Z,-12.12
2023-02-19T07:43:37.680Z,-12.14
2023-02-19T07:44:39.619Z,-12.15
2023-02-19T07:45:41.662Z,-12.08
2023-02-19T07:46:44.572Z,-12.12
2023-02-19T07:47:46.397Z,-12.06
2023-02-19T07:48:48.312Z,-12.15
2023-02-19T07:49:50.230Z,-12.15
2023-02-19T07:50:53.072Z,-12.30
2023-02-19T07:51:54.862Z,-12.28
2023-02-19T07:52:56.726Z,-12.13
2023-02-19T07:53:58.810Z,-12.15
2023-02-19T07:55:00.774Z,-12.09
2023-02-19T07:56:07.584Z,-12.13
2023-02-19T07:57:09.391Z,-12.20
2023-02-19T07:58:11.176Z,-12.20
2023-02-19T07:59:13.174Z,-12.15
2023-02-19T08:00:15.572Z,-12.05
2023-02-19T08:01:40.455Z,-11.98
2023-02-19T08:03:00.619Z,-12.05
2023-02-19T08:04:02.522Z,-12.03
2023-02-19T08:05:05.820Z,-11.94
2023-02-19T08:06:08.604Z,-11.96
2023-02-19T08:07:10.435Z,-12.07
2023-02-19T08:08:14.855Z,-12.02
2023-02-19T08:09:16.567Z,-12.05
2023-02-19T08:10:36.879Z,-11.99
2023-02-19T08:11:57.483Z,-12.08
2023-02-19T08:13:19.336Z,-12.00
2023-02-19T08:14:32.456Z,-11.66
2023-02-19T08:15:34.580Z,-11.73
2023-02-19T08:16:42.944Z,-11.67
2023-02-19T08:17:45.345Z,-11.82
2023-02-19T08:18:48.103Z,-11.91
2023-02-19T08:19:50.130Z,-11.92
2023-02-19T08:20:52.689Z,-11.91
2023-02-19T08:21:54.765Z,-11.95
2023-02-19T08:22:56.567Z,-11.88
2023-02-19T08:23:58.420Z,-11.94
2023-02-19T08:25:00.256Z,-11.90
2023-02-19T08:26:03.298Z,-11.87
2023-02-19T08:27:05.152Z,-11.85
2023-02-19T08:28:09.178Z,-11.83
2023-02-19T08:29:11.338Z,-11.77
2023-02-19T08:30:13.512Z,-11.97
2023-02-19T08:31:15.745Z,-11.84
2023-02-19T08:32:17.605Z,-11.73
2023-02-19T08:33:21.623Z,-11.65
2023-02-19T08:34:23.458Z,-11.80
2023-02-19T08:35:26.032Z,-11.87
2023-02-19T08:36:28.304Z,-11.91
2023-02-19T08:37:30.092Z,-11.97
2023-02-19T08:38:34.857Z,-11.94
2023-02-19T08:39:37.006Z,-11.77
2023-02-19T08:40:39.886Z,-11.58
2023-02-19T08:41:41.790Z,-11.67
2023-02-19T08:42:43.578Z,-11.76
2023-02-19T08:43:45.600Z,-11.70
2023-02-19T08:44:47.766Z,-11.70
2023-02-19T08:45:53.726Z,-11.72
2023-02-19T08:46:55.705Z,-11.62
2023-02-19T08:47:57.824Z,-11.64
2023-02-19T08:48:59.804Z,-11.61
2023-02-19T08:50:02.374Z,-11.51
2023-02-19T08:51:09.552Z,-11.43
2023-02-19T08:52:11.654Z,-11.30
2023-02-19T08:53:13.507Z,-11.19
2023-02-19T08:54:15.453Z,-11.13
2023-02-19T08:55:18.174Z,-11.07
2023-02-19T08:56:20.492Z,-11.01
2023-02-19T08:57:22.735Z,-10.92
2023-02-19T08:58:26.440Z,-10.87
2023-02-19T08:59:31.840Z,-10.82
2023-02-19T09:00:33.951Z,-10.75
2023-02-19T09:01:35.832Z,-10.76
2023-02-19T09:02:37.749Z,-10.77
2023-02-19T09:03:39.605Z,-10.78
2023-02-19T09:04:41.570Z,-10.72
2023-02-19T09:05:43.504Z,-10.70
2023-02-19T09:06:46.115Z,-10.69
2023-02-19T09:07:48.001Z,-10.75
2023-02-19T09:08:49.877Z,-10.71
2023-02-19T09:09:51.909Z,-10.70
2023-02-19T09:11:04.808Z,-10.78
2023-02-19T09:12:08.655Z,-10.82
2023-02-19T09:13:10.539Z,-10.61
2023-02-19T09:14:12.387Z,-10.69
2023-02-19T09:15:14.644Z,-10.84
2023-02-19T09:16:17.695Z,-10.79
2023-02-19T09:17:19.612Z,-10.77
2023-02-19T09:18:22.086Z,-10.75
2023-02-19T09:19:23.975Z,-10.79
2023-02-19T09:20:25.836Z,-10.77
2023-02-19T09:21:28.365Z,-10.75
2023-02-19T09:22:30.906Z,-10.87
2023-02-19T09:23:34.688Z,-10.74
2023-02-19T09:24:37.190Z,-10.79
2023-02-19T09:25:39.498Z,-10.91
2023-02-19T09:26:41.588Z,-10.92
2023-02-19T09:27:43.546Z,-10.91
2023-02-19T09:28:45.684Z,-10.82
2023-02-19T09:29:47.754Z,-10.73
2023-02-19T09:30:49.670Z,-10.76
2023-02-19T09:31:51.712Z,-10.75
2023-02-19T09:32:54.184Z,-10.66
2023-02-19T09:33:56.163Z,-10.66
2023-02-19T09:34:58.181Z,-10.77
2023-02-19T09:36:02.044Z,-10.86
2023-02-19T09:37:03.986Z,-10.90
2023-02-19T09:38:05.962Z,-10.93
2023-02-19T09:39:09.327Z,-10.94
2023-02-19T09:40:11.887Z,-10.93
2023-02-19T09:41:22.645Z,-10.91
2023-02-19T09:42:29.981Z,-10.85
2023-02-19T09:43:32.951Z,-10.81
2023-02-19T09:44:45.359Z,-10.70
2023-02-19T09:45:48.075Z,-10.76
2023-02-19T09:46:52.966Z,-10.65
2023-02-19T09:47:58.047Z,-10.68
2023-02-19T09:49:06.582Z,-10.67
2023-02-19T09:50:10.564Z,-10.59
2023-02-19T09:51:14.253Z,-10.61
2023-02-19T09:52:57.209Z,-10.51
2023-02-19T09:53:59.487Z,-10.45
2023-02-19T09:55:28.304Z,-10.58
2023-02-19T09:56:30.542Z,-10.56
2023-02-19T09:57:35.448Z,-10.56
2023-02-19T09:58:58.431Z,-10.45
2023-02-19T10:00:29.172Z,-10.22
2023-02-19T10:01:37.601Z,-10.13
2023-02-19T10:02:39.570Z,-10.18
2023-02-19T10:03:47.085Z,-10.17
2023-02-19T10:04:53.448Z,-10.18
2023-02-19T10:05:56.758Z,-10.22
2023-02-19T10:07:03.477Z,-10.26
2023-02-19T10:08:10.358Z,-10.25
2023-02-19T10:09:24.024Z,-10.29
2023-02-19T10:10:30.352Z,-10.24
2023-02-19T10:11:32.292Z,-10.20
2023-02-19T10:12:35.308Z,-10.17
2023-02-19T10:13:45.858Z,-10.21
2023-02-19T10:14:51.478Z,-10.13
2023-02-19T10:15:57.233Z,-10.09
2023-02-19T10:17:03.652Z,-10.03
2023-02-19T10:18:09.429Z,-9.96
2023-02-19T10:19:14.342Z,-9.99
2023-02-19T10:20:22.540Z,-10.02
2023-02-19T10:21:27.631Z,-10.07
2023-02-19T10:22:31.241Z,-10.02
2023-02-19T10:23:33.798Z,-10.01
2023-02-19T10:24:38.371Z,-10.03
2023-02-19T10:25:46.802Z,-10.05
2023-02-19T10:26:50.352Z,-10.05
2023-02-19T10:27:52.380Z,-10.05
2023-02-19T10:28:55.623Z,-10.06
2023-02-19T10:29:59.186Z,-10.09
2023-02-19T10:31:04.181Z,-10.09
2023-02-19T10:32:24.749Z,-10.08
2023-02-19T10:33:27.720Z,-10.06
2023-02-19T10:34:29.620Z,-10.04
2023-02-19T10:35:36.507Z,-10.09
2023-02-19T10:36:45.027Z,-9.97
2023-02-19T10:37:50.207Z,-10.06
2023-02-19T10:38:53.063Z,-10.04
2023-02-19T10:39:56.529Z,-9.98
2023-02-19T10:41:07.848Z,-10.01
2023-02-19T10:42:23.618Z,-10.06
2023-02-19T10:43:33.270Z,-10.09
2023-02-19T10:44:44.009Z,-10.13
2023-02-19T10:45:53.306Z,-10.07
2023-02-19T10:46:59.437Z,-10.07
2023-02-19T10:48:01.772Z,-10.01
2023-02-19T10:49:33.469Z,-10.01
2023-02-19T10:50:47.077Z,-10.04
2023-02-19T10:51:49.941Z,-10.10
2023-02-19T10:52:55.759Z,-10.04
2023-02-19T10:54:20.087Z,-10.09
2023-02-19T10:55:38.241Z,-10.07
2023-02-19T10:56:41.551Z,-10.14
2023-02-19T10:57:43.638Z,-10.11
2023-02-19T10:58:47.099Z,-10.13
2023-02-19T10:59:51.733Z,-10.17
2023-02-19T11:01:11.224Z,-10.15
2023-02-19T11:02:18.623Z,-10.14
2023-02-19T11:03:24.124Z,-10.14
2023-02-19T11:04:29.444Z,-10.12
2023-02-19T11:05:31.535Z,-10.14
2023-02-19T11:06:35.004Z,-10.12
2023-02-19T11:07:38.518Z,-10.13
2023-02-19T11:08:49.014Z,-10.12
2023-02-19T11:09:56.581Z,-10.24
2023-02-19T11:10:58.503Z,-10.18
2023-02-19T11:12:00.566Z,-10.11
2023-02-19T11:13:06.198Z,-10.04
2023-02-19T11:14:19.531Z,-10.04
2023-02-19T11:15:25.440Z,-10.02
2023-02-19T11:16:49.896Z,-9.96
2023-02-19T11:18:05.010Z,-9.95
2023-02-19T11:19:06.890Z,-9.86
2023-02-19T11:20:16.280Z,-9.94
2023-02-19T11:21:33.140Z,-9.98
2023-02-19T11:22:46.961Z,-9.98
2023-02-19T11:23:48.941Z,-9.98
2023-02-19T11:24:56.670Z,-9.94
2023-02-19T11:26:04.195Z,-9.95
2023-02-19T11:27:17.354Z,-9.97
2023-02-19T11:28:39.463Z,-10.04
2023-02-19T11:29:41.319Z,-10.02
2023-02-19T11:30:44.392Z,-10.00
2023-02-19T11:31:46.557Z,-10.03
2023-02-19T11:32:48.575Z,-10.08
2023-02-19T11:33:59.976Z,-10.04
2023-02-19T11:35:17.953Z,-10.05
2023-02-19T11:36:33.187Z,-10.08
2023-02-19T11:37:35.086Z,-10.09
2023-02-19T11:38:37.037Z,-10.13
2023-02-19T11:39:42.710Z,-10.17
2023-02-19T11:41:05.464Z,-10.18
2023-02-19T11:42:34.905Z,-10.17
2023-02-19T11:43:52.791Z,-10.17
2023-02-19T11:44:57.515Z,-10.15
2023-02-19T11:46:27.104Z,-10.17
2023-02-19T11:48:07.278Z,-10.20
2023-02-19T11:49:43.938Z,-10.15
2023-02-19T11:51:00.884Z,-10.17
2023-02-19T11:52:05.520Z,-10.13
2023-02-19T11:53:32.345Z,-10.18
2023-02-19T11:54:52.127Z,-10.15
2023-02-19T11:56:20.944Z,-10.16
2023-02-19T11:57:37.823Z,-10.20
2023-02-19T11:58:53.256Z,-10.27
2023-02-19T12:00:28.514Z,-10.29
2023-02-19T12:01:55.546Z,-10.43
2023-02-19T12:03:10.953Z,-10.41
2023-02-19T12:04:36.885Z,-10.37
2023-02-19T12:05:57.798Z,-10.47
2023-02-19T12:07:27.024Z,-10.43
2023-02-19T12:08:47.489Z,-10.46
2023-02-19T12:10:04.294Z,-10.59
2023-02-19T12:11:08.812Z,-10.64
2023-02-19T12:12:24.531Z,-10.64
2023-02-19T12:13:47.982Z,-10.57
2023-02-19T12:14:55.512Z,-10.64
2023-02-19T12:16:03.609Z,-10.65
2023-02-19T12:17:14.413Z,-10.65
2023-02-19T12:18:32.203Z,-10.62
2023-02-19T12:19:47.988Z,-10.67
2023-02-19T12:21:19.063Z,-10.75
2023-02-19T12:22:53.198Z,-10.74
2023-02-19T12:24:27.759Z,-10.81
2023-02-19T12:25:35.778Z,-10.93
2023-02-19T12:27:03.765Z,-10.96
2023-02-19T12:28:39.650Z,-10.91
2023-02-19T12:29:50.299Z,-10.94
2023-02-19T12:31:06.477Z,-10.94
2023-02-19T12:32:17.867Z,-10.93
2023-02-19T12:33:32.132Z,-10.99
2023-02-19T12:35:05.573Z,-11.00
2023-02-19T12:36:21.502Z,-11.08
2023-02-19T12:37:26.088Z,-11.19
2023-02-19T12:38:35.328Z,-11.11
2023-02-19T12:39:40.023Z,-11.11
2023-02-19T12:41:13.331Z,-11.22
2023-02-19T12:42:51.317Z,-11.28
2023-02-19T12:44:18.542Z,-11.32
2023-02-19T12:45:31.930Z,-11.34
2023-02-19T12:46:38.643Z,-11.35
2023-02-19T12:47:42.435Z,-11.33
2023-02-19T12:48:48.950Z,-11.36
2023-02-19T12:50:01.298Z,-11.45
2023-02-19T12:51:19.426Z,-11.44
2023-02-19T12:52:28.444Z,-11.45
2023-02-19T12:53:45.033Z,-11.50
2023-02-19T12:54:51.108Z,-11.45
2023-02-19T12:55:55.680Z,-11.41
2023-02-19T12:57:10.688Z,-11.43
2023-02-19T12:58:24.834Z,-11.57
2023-02-19T12:59:42.081Z,-11.56
2023-02-19T13:00:50.598Z,-11.61
2023-02-19T13:02:03.253Z,-11.57
2023-02-19T13:03:50.522Z,-11.60
2023-02-19T13:04:58.625Z,-11.64
2023-02-19T13:06:25.409Z,-11.57
2023-02-19T13:07:36.483Z,-11.61
2023-02-19T13:09:06.378Z,-11.65
2023-02-19T13:10:11.526Z,-11.69
2023-02-19T13:11:20.686Z,-11.76
2023-02-19T13:12:30.243Z,-11.74
2023-02-19T13:13:38.742Z,-11.72
2023-02-19T13:14:45.293Z,-11.77
2023-02-19T13:15:52.742Z,-11.81
2023-02-19T13:17:00.888Z,-11.87
2023-02-19T13:18:05.454Z,-11.97
2023-02-19T13:19:07.132Z,-12.00
2023-02-19T13:20:32.618Z,-12.03
2023-02-19T13:21:56.412Z,-12.00
2023-02-19T13:23:59.509Z,-11.98
2023-02-19T13:25:03.073Z,-12.08
2023-02-19T13:26:16.769Z,-12.11
2023-02-19T13:29:03.774Z,-12.11
2023-02-19T13:31:00.722Z,-12.11
2023-02-19T13:32:28.806Z,-12.04
2023-02-19T13:33:58.686Z,-12.16
2023-02-19T13:35:19.034Z,-12.13
2023-02-19T13:36:26.724Z,-12.15
2023-02-19T13:37:34.314Z,-12.22
2023-02-19T13:38:43.405Z,-12.31
2023-02-19T13:39:53.922Z,-12.30
2023-02-19T13:41:00.382Z,-12.30
2023-02-19T13:42:02.372Z,-12.33
2023-02-19T13:43:07.945Z,-12.37
2023-02-19T13:44:22.227Z,-12.39
2023-02-19T13:45:46.246Z,-12.29
2023-02-19T13:46:49.996Z,-12.33
2023-02-19T13:47:54.817Z,-12.33
2023-02-19T13:49:36.652Z,-12.34
2023-02-19T13:50:38.663Z,-12.29
2023-02-19T13:51:49.350Z,-12.32
2023-02-19T13:52:53.527Z,-12.34
2023-02-19T13:54:03.401Z,-12.35
2023-02-19T13:55:42.861Z,-12.40
2023-02-19T13:56:44.996Z,-12.37
2023-02-19T13:57:47.245Z,-12.38
2023-02-19T13:59:12.495Z,-12.36
2023-02-19T14:00:49.399Z,-12.40
2023-02-19T14:01:52.057Z,-12.35
2023-02-19T14:03:27.326Z,-12.38
2023-02-19T14:04:32.209Z,-12.42
2023-02-19T14:05:59.001Z,-12.45